Time;durP1;ratioP1;P1;durP2;ratioP2;P2;SDS_P1;SDS_P2;PMS_P1;PMS_P2;Temp;Humidity;BMP_temperature;BMP_pressure;BME280_temperature;BME280_humidity;BME280_pressure;Samples;Min_cycle;Max_cycle;Signal;HPM_P1;HPM_P2
2023/03/04 00:01:10;;;;;;;13.93;2.22;;;;;;;6.75;100.00;102820.81;4968834;28;20483;-60
2023/03/04 00:03:36;;;;;;;19.40;2.42;;;;;;;6.97;100.00;102820.19;4969057;28;20027;-62
2023/03/04 00:06:01;;;;;;;17.63;2.53;;;;;;;6.93;100.00;102828.03;4967713;28;20031;-60
2023/03/04 00:08:26;;;;;;;18.92;2.53;;;;;;;7.01;100.00;102827.28;4970596;28;20447;-60
2023/03/04 00:10:52;;;;;;;25.85;3.50;;;;;;;6.95;100.00;102828.94;4970483;28;20702;-61
2023/03/04 00:13:20;;;;;;;24.20;3.10;;;;;;;6.79;100.00;102827.84;4970007;28;20027;-61
2023/03/04 00:15:45;;;;;;;16.88;2.42;;;;;;;6.89;100.00;102822.75;4969037;28;20088;-60
2023/03/04 00:18:10;;;;;;;16.10;2.60;;;;;;;6.65;100.00;102829.41;4969330;28;20034;-60
2023/03/04 00:20:35;;;;;;;18.33;3.45;;;;;;;7.01;100.00;102827.28;4969780;28;20077;-60
2023/03/04 00:23:01;;;;;;;24.17;3.08;;;;;;;7.05;100.00;102822.06;4969873;28;20053;-61
2023/03/04 00:25:26;;;;;;;16.75;3.28;;;;;;;7.08;100.00;102821.25;4968906;28;20030;-62
2023/03/04 00:27:51;;;;;;;25.80;3.95;;;;;;;7.14;100.00;102825.69;4969661;28;20117;-60
2023/03/04 00:30:17;;;;;;;16.42;3.38;;;;;;;7.19;100.00;102829.22;4969002;28;20027;-61
2023/03/04 00:32:42;;;;;;;19.27;3.40;;;;;;;7.20;100.00;102833.63;4968513;28;20114;-62
2023/03/04 00:35:08;;;;;;;19.77;3.58;;;;;;;7.25;100.00;102826.69;4969443;28;20054;-61
2023/03/04 00:37:33;;;;;;;28.08;3.80;;;;;;;7.29;100.00;102823.22;4969379;28;20038;-60
2023/03/04 00:39:58;;;;;;;14.02;2.97;;;;;;;7.32;100.00;102823.25;4968077;28;20062;-60
2023/03/04 00:42:24;;;;;;;30.42;4.07;;;;;;;7.06;100.00;102826.47;4967993;28;20062;-61
2023/03/04 00:44:50;;;;;;;20.08;3.75;;;;;;;7.15;100.00;102828.31;5002736;28;20032;-60
2023/03/04 00:47:16;;;;;;;13.02;2.72;;;;;;;7.20;100.00;102828.38;5057903;28;20021;-61
2023/03/04 00:49:41;;;;;;;13.27;2.35;;;;;;;7.28;100.00;102821.47;4967899;28;20034;-62
2023/03/04 00:52:07;;;;;;;19.45;3.40;;;;;;;7.19;100.00;102827.50;4968209;28;20140;-61
2023/03/04 00:54:32;;;;;;;11.55;2.45;;;;;;;7.20;100.00;102820.50;4966906;28;20023;-62
2023/03/04 00:56:57;;;;;;;11.25;2.42;;;;;;;7.26;100.00;102820.59;4968735;28;20027;-62
2023/03/04 00:59:23;;;;;;;24.80;3.47;;;;;;;7.26;100.00;102825.84;4967842;28;20050;-61
2023/03/04 01:01:48;;;;;;;17.52;3.75;;;;;;;7.27;100.00;102824.97;4968313;28;20368;-61
2023/03/04 01:04:13;;;;;;;13.77;2.70;;;;;;;7.22;100.00;102824.00;4966682;28;20023;-61
2023/03/04 01:06:39;;;;;;;18.17;3.03;;;;;;;7.18;100.00;102822.22;4968226;28;20120;-60
2023/03/04 01:09:04;;;;;;;23.50;3.80;;;;;;;7.14;100.00;102816.09;4968427;28;20114;-60
2023/03/04 01:11:29;;;;;;;18.35;3.45;;;;;;;7.09;100.00;102820.38;4968473;28;20057;-62
2023/03/04 01:13:55;;;;;;;17.73;3.17;;;;;;;7.18;100.00;102827.47;4967392;28;20479;-62
2023/03/04 01:16:20;;;;;;;22.15;4.85;;;;;;;6.95;100.00;102830.66;4968839;28;20099;-62
2023/03/04 01:18:46;;;;;;;22.02;3.80;;;;;;;7.07;100.00;102815.09;4967919;28;20029;-61
2023/03/04 01:21:12;;;;;;;13.48;3.65;;;;;;;7.11;100.00;102821.28;4967421;28;20026;-61
2023/03/04 01:23:37;;;;;;;11.27;3.60;;;;;;;7.24;100.00;102813.53;4968925;28;20438;-60
2023/03/04 01:26:03;;;;;;;20.90;4.70;;;;;;;7.24;100.00;102816.16;4969073;28;20497;-60
2023/03/04 01:28:28;;;;;;;17.98;3.22;;;;;;;7.16;100.00;102810.81;4968159;28;20553;-62
2023/03/04 01:30:54;;;;;;;11.25;3.53;;;;;;;7.29;100.00;102807.50;4967793;28;20424;-61
2023/03/04 01:33:19;;;;;;;23.58;3.20;;;;;;;7.29;100.00;102804.88;4967180;28;20440;-62
2023/03/04 01:35:44;;;;;;;19.20;3.22;;;;;;;7.18;100.00;102802.13;4968188;28;20104;-61
2023/03/04 01:38:11;;;;;;;16.80;3.55;;;;;;;7.16;100.00;102795.09;4968114;28;20074;-63
2023/03/04 01:40:37;;;;;;;20.98;4.13;;;;;;;7.26;100.00;102798.72;4968200;28;20037;-61
2023/03/04 01:43:02;;;;;;;22.35;3.90;;;;;;;7.10;100.00;102797.66;4966963;28;20035;-61
2023/03/04 01:45:28;;;;;;;17.70;3.28;;;;;;;7.10;100.00;102789.81;4966777;28;20082;-60
2023/03/04 01:47:53;;;;;;;16.65;3.15;;;;;;;7.15;100.00;102788.09;4996662;28;20029;-61
2023/03/04 01:50:23;;;;;;;13.70;3.30;;;;;;;7.05;100.00;102782.72;5049194;28;20025;-60
2023/03/04 01:52:48;;;;;;;22.23;3.03;;;;;;;7.04;100.00;102781.00;5048956;28;20037;-62
2023/03/04 01:55:16;;;;;;;16.00;2.83;;;;;;;7.08;100.00;102777.53;5048907;28;20017;-61
2023/03/04 01:57:41;;;;;;;13.55;2.92;;;;;;;7.09;100.00;102773.19;5049244;28;20057;-61
2023/03/04 02:00:29;;;;;;;17.13;2.90;;;;;;;7.12;100.00;102773.22;4990377;28;20060;-63
2023/03/04 02:02:58;;;;;;;17.00;3.08;;;;;;;7.11;100.00;102766.22;4964972;28;20131;-61
2023/03/04 02:05:24;;;;;;;16.95;2.38;;;;;;;7.08;100.00;102771.44;4966866;28;20058;-61
2023/03/04 02:07:52;;;;;;;17.58;3.50;;;;;;;7.04;100.00;102764.38;4962451;28;20568;-62
2023/03/04 02:10:17;;;;;;;15.20;2.53;;;;;;;7.08;100.00;102759.19;4948452;28;20031;-61
2023/03/04 02:12:44;;;;;;;15.38;2.60;;;;;;;7.02;100.00;102759.13;4946763;28;20035;-60
2023/03/04 02:15:09;;;;;;;21.42;2.92;;;;;;;7.11;100.00;102749.59;4946855;28;20460;-61
2023/03/04 02:17:35;;;;;;;21.27;2.72;;;;;;;7.16;100.00;102750.53;4948304;29;20583;-62
2023/03/04 02:20:29;;;;;;;21.75;2.35;;;;;;;7.21;100.00;102751.47;4959969;28;20031;-62
2023/03/04 02:23:11;;;;;;;15.57;2.03;;;;;;;7.03;100.00;102747.78;4980780;28;20050;-62
2023/03/04 02:25:45;;;;;;;18.90;2.17;;;;;;;7.09;100.00;102744.34;4966028;28;20113;-59
2023/03/04 02:28:10;;;;;;;14.88;2.50;;;;;;;6.89;100.00;102746.75;4966921;28;20027;-61
2023/03/04 02:30:36;;;;;;;9.60;2.80;;;;;;;7.07;100.00;102739.09;4966475;28;20137;-60
2023/03/04 02:33:01;;;;;;;12.45;2.28;;;;;;;7.03;100.00;102736.41;4966073;28;20023;-62
2023/03/04 02:35:26;;;;;;;12.38;2.33;;;;;;;7.10;100.00;102732.13;4965373;28;20035;-61
2023/03/04 02:37:52;;;;;;;13.40;2.47;;;;;;;7.04;100.00;102733.81;4967395;28;20046;-61
2023/03/04 02:40:30;;;;;;;14.57;2.15;;;;;;;7.13;100.00;102726.94;4966072;28;20019;-61
2023/03/04 02:42:59;;;;;;;16.50;2.55;;;;;;;7.14;99.98;102721.69;4949566;28;20483;-61
2023/03/04 02:45:45;;;;;;;18.08;2.47;;;;;;;7.16;100.00;102716.44;4964902;28;20027;-61
2023/03/04 02:48:11;;;;;;;15.80;3.25;;;;;;;7.21;99.99;102722.63;4964314;28;20065;-60
2023/03/04 02:50:43;;;;;;;14.27;2.20;;;;;;;7.24;99.75;102720.03;4966024;28;20463;-61
2023/03/04 02:53:09;;;;;;;17.50;3.15;;;;;;;7.23;99.81;102717.41;4964692;28;20026;-63
2023/03/04 02:55:34;;;;;;;12.23;2.92;;;;;;;7.20;100.00;102713.00;4966362;28;20432;-61
2023/03/04 02:58:00;;;;;;;7.65;2.03;;;;;;;7.24;100.00;102719.16;4966984;28;20031;-60
2023/03/04 03:00:26;;;;;;;11.80;1.83;;;;;;;7.19;100.00;102719.09;4965613;28;20031;-60
2023/03/04 03:02:51;;;;;;;13.02;1.80;;;;;;;7.18;100.00;102720.84;4963966;28;20035;-60
2023/03/04 03:05:17;;;;;;;12.23;2.45;;;;;;;7.16;100.00;102719.06;4965848;28;20043;-60
2023/03/04 03:07:42;;;;;;;11.27;2.10;;;;;;;7.07;100.00;102718.13;4961453;28;20051;-61
2023/03/04 03:10:08;;;;;;;12.93;2.13;;;;;;;7.14;100.00;102720.81;4947611;28;20050;-61
2023/03/04 03:12:34;;;;;;;13.40;1.90;;;;;;;7.18;100.00;102720.84;4947127;28;20024;-61
2023/03/04 03:14:59;;;;;;;21.58;2.97;;;;;;;7.25;100.00;102716.53;4950173;28;20031;-59
2023/03/04 03:17:24;;;;;;;18.33;2.30;;;;;;;7.14;100.00;102718.19;4950031;29;20103;-60
2023/03/04 03:19:50;;;;;;;19.17;2.03;;;;;;;7.00;100.00;102718.03;4960309;28;20035;-60
2023/03/04 03:22:15;;;;;;;14.93;2.00;;;;;;;6.85;100.00;102726.56;4968861;28;20035;-60
2023/03/04 03:24:41;;;;;;;21.15;2.53;;;;;;;6.99;100.00;102714.53;4969109;28;20574;-58
2023/03/04 03:27:06;;;;;;;22.80;3.72;;;;;;;7.01;100.00;102715.41;4968595;28;20027;-60
2023/03/04 03:29:31;;;;;;;15.20;3.42;;;;;;;6.85;100.00;102713.47;4966476;28;20517;-59
2023/03/04 03:31:57;;;;;;;12.13;2.50;;;;;;;6.88;100.00;102710.88;4964574;28;20045;-61
2023/03/04 03:34:22;;;;;;;13.02;2.55;;;;;;;6.99;100.00;102708.41;4967006;28;20034;-61
2023/03/04 03:36:47;;;;;;;20.85;2.50;;;;;;;7.00;100.00;102713.66;4967850;28;20065;-61
2023/03/04 03:39:14;;;;;;;14.98;2.20;;;;;;;7.01;100.00;102704.94;5060973;28;20037;-61
2023/03/04 03:41:40;;;;;;;14.15;2.10;;;;;;;6.97;100.00;102711.00;5070877;28;20032;-62
2023/03/04 03:44:05;;;;;;;8.50;2.03;;;;;;;7.07;100.00;102704.13;5062894;28;20532;-60
2023/03/04 03:46:31;;;;;;;17.35;2.25;;;;;;;7.00;100.00;102716.28;4967317;28;20038;-62
2023/03/04 03:48:56;;;;;;;11.52;2.78;;;;;;;6.88;100.00;102711.78;4966403;28;20467;-61
2023/03/04 03:51:21;;;;;;;18.02;2.40;;;;;;;6.79;100.00;102720.41;4966190;28;20030;-60
2023/03/04 03:53:46;;;;;;;11.55;2.55;;;;;;;6.77;100.00;102721.28;4976595;28;20029;-61
2023/03/04 03:56:12;;;;;;;13.85;3.90;;;;;;;6.89;100.00;102715.28;4971888;28;20117;-60
2023/03/04 03:58:37;;;;;;;13.80;3.85;;;;;;;6.95;100.00;102711.00;4967894;28;20123;-61
2023/03/04 04:01:05;;;;;;;13.73;3.53;;;;;;;7.08;100.00;102714.63;4967870;28;20070;-61
2023/03/04 04:03:31;;;;;;;7.43;2.38;;;;;;;7.11;100.00;102713.78;4967563;28;20486;-61
2023/03/04 04:05:56;;;;;;;13.60;2.25;;;;;;;6.97;100.00;102711.00;4968414;28;20087;-62
2023/03/04 04:08:21;;;;;;;12.90;2.17;;;;;;;7.03;100.00;102712.81;4966114;28;20075;-61
2023/03/04 04:10:47;;;;;;;20.88;2.75;;;;;;;6.92;100.00;102713.56;4966962;28;20047;-60
2023/03/04 04:13:12;;;;;;;12.63;2.67;;;;;;;6.90;100.00;102715.31;4965727;28;20621;-60
2023/03/04 04:15:37;;;;;;;8.55;1.73;;;;;;;7.02;100.00;102719.81;4967333;28;20027;-62
2023/03/04 04:18:04;;;;;;;9.32;1.70;;;;;;;7.00;100.00;102716.28;4965060;28;20039;-60
2023/03/04 04:20:30;;;;;;;8.95;2.15;;;;;;;6.94;100.00;102717.09;4965582;28;20101;-60
2023/03/04 04:22:55;;;;;;;11.13;1.98;;;;;;;6.85;100.00;102714.38;4967334;28;20486;-60
2023/03/04 04:25:20;;;;;;;17.30;2.83;;;;;;;6.92;100.00;102720.53;4966795;28;20026;-65
2023/03/04 04:27:46;;;;;;;7.93;2.25;;;;;;;6.68;100.00;102724.63;4967589;28;20026;-62
2023/03/04 04:30:12;;;;;;;13.75;2.38;;;;;;;6.78;100.00;102725.63;4966017;28;20035;-62
2023/03/04 04:32:37;;;;;;;13.68;2.20;;;;;;;6.72;100.00;102717.69;4967538;28;20113;-62
2023/03/04 04:35:03;;;;;;;9.50;1.88;;;;;;;6.84;100.00;102717.84;4967912;28;20033;-62
2023/03/04 04:37:28;;;;;;;6.50;1.63;;;;;;;6.87;100.00;102720.53;4968554;28;20442;-61
2023/03/04 04:39:54;;;;;;;16.30;1.95;;;;;;;6.79;100.00;102724.78;4967639;28;20031;-61
2023/03/04 04:42:20;;;;;;;11.60;2.28;;;;;;;6.86;100.00;102729.22;4968541;28;20482;-61
2023/03/04 04:44:45;;;;;;;10.73;2.55;;;;;;;6.92;100.00;102725.78;4967284;28;20035;-61
2023/03/04 04:47:11;;;;;;;10.95;2.05;;;;;;;6.71;100.00;102722.03;4967434;28;20111;-62
2023/03/04 04:49:36;;;;;;;17.20;3.10;;;;;;;6.95;100.00;102715.34;4967991;28;20026;-64
2023/03/04 04:52:02;;;;;;;15.25;1.90;;;;;;;6.87;100.00;102722.25;4968211;28;20026;-60
2023/03/04 04:54:27;;;;;;;12.60;1.60;;;;;;;6.93;100.00;102719.69;4967427;28;20031;-60
2023/03/04 04:56:53;;;;;;;7.53;2.20;;;;;;;6.93;100.00;102719.69;4968370;28;20105;-61
2023/03/04 04:59:18;;;;;;;11.38;1.60;;;;;;;6.89;100.00;102723.16;4967464;28;20038;-60
2023/03/04 05:01:43;;;;;;;13.13;1.58;;;;;;;6.91;100.00;102717.06;4967092;28;20031;-62
2023/03/04 05:04:09;;;;;;;9.10;1.98;;;;;;;6.94;100.00;102726.69;4967310;28;20034;-62
2023/03/04 05:06:34;;;;;;;16.98;2.55;;;;;;;6.86;100.00;102729.22;4967455;28;20107;-61
2023/03/04 05:09:00;;;;;;;13.18;1.88;;;;;;;6.84;100.00;102717.84;4967530;28;20441;-60
2023/03/04 05:11:26;;;;;;;11.05;1.80;;;;;;;6.92;100.00;102724.06;4968157;28;20731;-61
2023/03/04 05:13:52;;;;;;;10.43;1.98;;;;;;;7.00;100.00;102718.03;4967612;28;20022;-60
2023/03/04 05:16:18;;;;;;;10.85;2.03;;;;;;;7.00;100.00;102721.53;4966819;28;20406;-61
2023/03/04 05:18:43;;;;;;;10.60;1.67;;;;;;;7.01;100.00;102720.66;4968089;28;20429;-61
2023/03/04 05:21:09;;;;;;;10.90;1.75;;;;;;;7.00;100.00;102721.53;4969194;28;20053;-61
2023/03/04 05:23:37;;;;;;;13.00;3.72;;;;;;;7.04;100.00;102720.69;4968907;28;20019;-61
2023/03/04 05:26:03;;;;;;;8.05;1.60;;;;;;;7.01;100.00;102720.66;4969007;28;20038;-61
2023/03/04 05:28:29;;;;;;;10.90;1.85;;;;;;;7.01;100.00;102727.66;4968759;28;20035;-61
2023/03/04 05:30:54;;;;;;;10.48;2.28;;;;;;;7.06;100.00;102724.22;4968107;28;20049;-56
2023/03/04 05:33:20;;;;;;;6.38;1.63;;;;;;;6.95;100.00;102728.44;4967425;28;20046;-61
2023/03/04 05:35:47;;;;;;;12.45;2.38;;;;;;;7.02;100.00;102725.06;4967538;28;20034;-61
2023/03/04 05:38:14;;;;;;;13.63;1.80;;;;;;;6.95;100.00;102728.44;4968232;28;20026;-60
2023/03/04 05:40:40;;;;;;;16.30;2.22;;;;;;;6.95;100.00;102729.34;4966175;28;20109;-62
2023/03/04 05:43:05;;;;;;;7.78;1.50;;;;;;;6.88;100.00;102734.47;4968189;28;20126;-62
2023/03/04 05:45:30;;;;;;;8.93;1.98;;;;;;;6.82;100.00;102730.94;4965469;28;20065;-60
2023/03/04 05:47:56;;;;;;;10.88;3.28;;;;;;;6.86;100.00;102723.97;4967044;28;20030;-62
2023/03/04 05:50:22;;;;;;;8.15;1.33;;;;;;;6.89;100.00;102717.91;4966538;28;20030;-60
2023/03/04 05:52:48;;;;;;;18.52;2.50;;;;;;;6.84;100.00;102728.34;4967616;28;20517;-60
2023/03/04 05:55:14;;;;;;;8.05;2.03;;;;;;;6.83;100.00;102723.94;4965567;28;20026;-60
2023/03/04 05:57:39;;;;;;;9.15;2.25;;;;;;;6.74;100.00;102726.47;4966655;28;20475;-61
2023/03/04 06:00:08;;;;;;;15.05;2.03;;;;;;;6.73;100.00;102720.34;4965269;28;20400;-60
2023/03/04 06:02:36;;;;;;;13.43;1.92;;;;;;;6.51;100.00;102711.31;4968901;28;20027;-60
2023/03/04 06:05:02;;;;;;;7.37;1.90;;;;;;;6.74;100.00;102716.00;4967027;28;20026;-61
2023/03/04 06:07:28;;;;;;;11.95;2.35;;;;;;;6.72;100.00;102718.59;4966191;28;20038;-60
2023/03/04 06:09:53;;;;;;;11.88;2.10;;;;;;;6.70;100.00;102715.94;4965474;28;20444;-60
2023/03/04 06:12:19;;;;;;;6.60;1.40;;;;;;;6.78;100.00;102715.16;4967045;28;20023;-62
2023/03/04 06:14:44;;;;;;;13.80;2.35;;;;;;;6.81;100.00;102713.44;4966463;28;20023;-60
2023/03/04 06:17:09;;;;;;;10.23;1.75;;;;;;;6.63;100.00;102715.84;4966335;28;20026;-63
2023/03/04 06:19:36;;;;;;;6.57;1.98;;;;;;;6.80;100.00;102719.53;4967321;28;20435;-61
2023/03/04 06:22:02;;;;;;;12.27;1.92;;;;;;;6.83;100.00;102708.22;4966656;28;20042;-62
2023/03/04 06:24:28;;;;;;;11.18;1.85;;;;;;;6.95;100.00;102715.34;4964971;28;20237;-61
2023/03/04 06:26:53;;;;;;;10.57;1.88;;;;;;;6.97;100.00;102710.13;4966240;28;20424;-62
2023/03/04 06:29:18;;;;;;;9.38;1.60;;;;;;;7.00;100.00;102704.91;4966525;28;20046;-62
2023/03/04 06:31:44;;;;;;;12.70;2.22;;;;;;;7.01;100.00;102717.19;4952869;28;20030;-61
2023/03/04 06:34:09;;;;;;;9.23;1.70;;;;;;;6.97;100.00;102716.25;4966484;28;20046;-63
2023/03/04 06:36:35;;;;;;;9.20;1.98;;;;;;;6.85;100.00;102718.72;4966965;28;20027;-59
2023/03/04 06:39:07;;;;;;;10.82;1.77;;;;;;;6.97;100.00;102721.50;4965521;28;20422;-61
2023/03/04 06:41:33;;;;;;;9.95;1.75;;;;;;;7.09;100.00;102720.75;4966235;28;20041;-61
2023/03/04 06:43:58;;;;;;;13.02;2.10;;;;;;;7.14;100.00;102729.56;4966057;28;20027;-60
2023/03/04 06:46:23;;;;;;;9.50;1.85;;;;;;;7.13;100.00;102726.94;4964708;28;20432;-60
2023/03/04 06:48:49;;;;;;;10.65;1.80;;;;;;;7.09;100.00;102720.75;4967674;28;20049;-61
2023/03/04 06:51:14;;;;;;;9.73;2.58;;;;;;;7.10;100.00;102726.88;4967506;28;20027;-59
2023/03/04 06:53:40;;;;;;;9.27;1.92;;;;;;;7.15;100.00;102726.06;4969184;28;20043;-60
2023/03/04 06:56:07;;;;;;;8.23;1.42;;;;;;;7.08;100.00;102725.09;4970937;28;20058;-60
2023/03/04 06:58:32;;;;;;;7.57;1.60;;;;;;;7.16;100.00;102729.56;4968534;28;20084;-62
2023/03/04 07:01:12;;;;;;;6.20;1.95;;;;;;;7.10;100.00;102726.88;4969672;28;20489;-63
2023/03/04 07:03:37;;;;;;;9.32;1.88;;;;;;;7.21;100.00;102738.34;4970379;28;20092;-61
2023/03/04 07:06:03;;;;;;;7.57;1.70;;;;;;;7.29;100.00;102744.56;4969852;28;20054;-61
2023/03/04 07:08:28;;;;;;;8.40;2.03;;;;;;;7.27;100.00;102742.78;4969010;28;20026;-61
2023/03/04 07:10:53;;;;;;;10.35;1.85;;;;;;;7.23;100.00;102743.63;4970321;28;20031;-61
2023/03/04 07:13:19;;;;;;;5.82;1.27;;;;;;;7.08;100.00;102739.97;4970240;28;20411;-61
2023/03/04 07:15:44;;;;;;;12.68;1.38;;;;;;;6.94;100.00;102750.28;4968354;28;20491;-61
2023/03/04 07:18:10;;;;;;;6.32;1.02;;;;;;;6.93;100.00;102756.41;4968968;28;20031;-61
2023/03/04 07:20:35;;;;;;;6.82;1.15;;;;;;;6.97;100.00;102758.19;4970467;28;20101;-60
2023/03/04 07:23:01;;;;;;;5.78;1.30;;;;;;;7.12;100.00;102748.72;4969889;28;20035;-58
2023/03/04 07:25:26;;;;;;;9.82;1.63;;;;;;;7.10;100.00;102753.09;4970224;28;20019;-60
2023/03/04 07:27:51;;;;;;;4.03;1.35;;;;;;;7.32;100.00;102748.97;4969459;28;20049;-62
2023/03/04 07:30:17;;;;;;;6.35;1.35;;;;;;;7.19;100.00;102753.19;4968715;28;20197;-60
2023/03/04 07:32:42;;;;;;;11.50;1.20;;;;;;;7.15;100.00;102754.00;4968742;28;20072;-61
2023/03/04 07:35:07;;;;;;;4.28;1.13;;;;;;;7.05;100.00;102756.53;4970179;28;20019;-62
2023/03/04 07:37:33;;;;;;;7.53;1.20;;;;;;;7.12;100.00;102753.97;4969813;28;20019;-60
2023/03/04 07:39:58;;;;;;;3.72;0.90;;;;;;;6.90;100.00;102766.84;4969454;28;20026;-62
2023/03/04 07:42:24;;;;;;;9.50;1.15;;;;;;;6.88;100.00;102769.44;4967858;28;20030;-61
2023/03/04 07:44:49;;;;;;;7.07;1.13;;;;;;;7.10;100.00;102763.59;4968808;28;20175;-61
2023/03/04 07:47:14;;;;;;;8.40;1.95;;;;;;;7.13;100.00;102774.13;4967725;28;20034;-61
2023/03/04 07:49:40;;;;;;;5.32;1.27;;;;;;;7.20;100.00;102768.94;4969044;28;20091;-63
2023/03/04 07:52:05;;;;;;;5.72;1.58;;;;;;;7.17;100.00;102768.91;4967948;28;20034;-60
2023/03/04 07:54:31;;;;;;;7.32;1.17;;;;;;;7.29;100.00;102769.91;4968762;28;20034;-61
2023/03/04 07:56:56;;;;;;;7.93;1.60;;;;;;;7.45;100.00;102770.94;4968930;28;20026;-59
2023/03/04 07:59:22;;;;;;;4.30;1.48;;;;;;;7.70;100.00;102774.69;4968472;28;20057;-60
2023/03/04 08:01:47;;;;;;;8.65;1.40;;;;;;;7.83;100.00;102778.31;4968462;28;20029;-59
2023/03/04 08:04:12;;;;;;;3.58;1.35;;;;;;;7.97;100.00;102775.81;4968976;28;20058;-62
2023/03/04 08:06:39;;;;;;;3.92;1.02;;;;;;;8.02;100.00;102774.97;4969463;28;20589;-61
2023/03/04 08:09:07;;;;;;;6.78;1.50;;;;;;;8.07;100.00;102782.00;4969429;28;20030;-62
2023/03/04 08:11:34;;;;;;;6.82;1.05;;;;;;;8.08;100.00;102783.78;4968552;28;20031;-61
2023/03/04 08:13:59;;;;;;;4.90;0.98;;;;;;;8.05;100.00;102782.88;4969527;28;20022;-60
2023/03/04 08:16:25;;;;;;;6.05;1.25;;;;;;;8.12;100.00;102781.19;4968161;28;20034;-61
2023/03/04 08:18:54;;;;;;;4.53;1.42;;;;;;;8.29;100.00;102782.19;4968740;28;20487;-62
2023/03/04 08:21:21;;;;;;;4.50;1.08;;;;;;;8.32;100.00;102776.97;4967389;28;20023;-61
2023/03/04 08:23:47;;;;;;;4.75;1.13;;;;;;;8.39;100.00;102771.72;4951374;28;20023;-60
2023/03/04 08:26:16;;;;;;;6.50;1.42;;;;;;;8.46;100.00;102787.53;4968211;28;20023;-62
2023/03/04 08:28:42;;;;;;;6.07;1.23;;;;;;;8.41;100.00;102778.75;4968752;28;20026;-62
2023/03/04 08:31:07;;;;;;;3.63;1.13;;;;;;;8.46;100.00;102784.03;4968538;28;20041;-59
2023/03/04 08:33:32;;;;;;;2.60;1.20;;;;;;;8.56;100.00;102788.53;4967312;28;20228;-60
2023/03/04 08:35:58;;;;;;;10.38;1.30;;;;;;;8.51;100.00;102782.31;4968575;28;20041;-59
2023/03/04 08:38:24;;;;;;;3.40;0.82;;;;;;;8.69;100.00;102783.31;4968217;28;20536;-60
2023/03/04 08:40:53;;;;;;;3.85;0.93;;;;;;;8.54;100.00;102779.75;4968282;28;20039;-60
2023/03/04 08:43:19;;;;;;;2.33;0.85;;;;;;;8.67;100.00;102774.56;4967979;28;20027;-61
2023/03/04 08:45:44;;;;;;;5.80;0.90;;;;;;;8.61;100.00;102777.16;4968164;28;20031;-62
2023/03/04 08:48:10;;;;;;;3.80;0.95;;;;;;;8.48;100.00;102777.03;4968033;28;20023;-63
2023/03/04 08:50:35;;;;;;;1.58;1.00;;;;;;;8.92;100.00;102770.31;4967030;28;20072;-62
2023/03/04 08:53:01;;;;;;;5.03;1.45;;;;;;;9.02;100.00;102772.94;4967652;28;20066;-61
2023/03/04 08:55:26;;;;;;;4.53;1.02;;;;;;;9.08;100.00;102775.59;4966349;28;20038;-62
2023/03/04 08:57:51;;;;;;;7.15;1.10;;;;;;;8.73;100.00;102790.34;4967408;28;20475;-62
2023/03/04 09:00:17;;;;;;;8.23;1.35;;;;;;;8.68;100.00;102778.94;4965952;28;20681;-60
2023/03/04 09:02:43;;;;;;;5.53;1.05;;;;;;;8.65;100.00;102769.28;4966794;28;20034;-63
2023/03/04 09:05:10;;;;;;;6.10;1.48;;;;;;;8.58;100.00;102776.25;4967966;28;20046;-64
2023/03/04 09:07:36;;;;;;;6.47;1.95;;;;;;;8.47;100.00;102770.03;4967726;28;20047;-62
2023/03/04 09:10:01;;;;;;;2.80;1.02;;;;;;;8.57;100.00;102763.09;4968317;28;20034;-61
2023/03/04 09:12:27;;;;;;;8.85;2.05;;;;;;;8.77;100.00;102765.84;4965293;28;20023;-62
2023/03/04 09:14:52;;;;;;;7.13;1.33;;;;;;;8.90;100.00;102769.41;4965701;28;20031;-61
2023/03/04 09:17:17;;;;;;;9.50;1.70;;;;;;;8.77;100.00;102765.84;4966424;28;20364;-61
2023/03/04 09:19:43;;;;;;;3.88;1.25;;;;;;;8.83;100.00;102759.75;4968110;28;20121;-60
2023/03/04 09:22:08;;;;;;;5.40;0.88;;;;;;;8.88;100.00;102762.38;4967082;28;20029;-62
2023/03/04 09:24:33;;;;;;;6.30;1.88;;;;;;;8.95;100.00;102761.53;4967837;28;20029;-61
2023/03/04 09:26:59;;;;;;;8.15;1.20;;;;;;;9.31;100.00;102756.38;4967631;28;20061;-60
2023/03/04 09:29:24;;;;;;;10.00;1.23;;;;;;;9.44;100.00;102755.53;4967135;28;20076;-62
2023/03/04 09:31:49;;;;;;;5.47;1.10;;;;;;;9.52;100.00;102760.81;4966521;28;20101;-61
2023/03/04 09:34:15;;;;;;;1.90;0.88;;;;;;;9.54;100.00;102759.06;4965459;28;20038;-61
2023/03/04 09:36:40;;;;;;;1.85;0.75;;;;;;;9.38;100.00;102762.53;4964899;28;20026;-60
2023/03/04 09:39:06;;;;;;;7.25;0.93;;;;;;;9.25;100.00;102761.63;4965289;28;20111;-61
2023/03/04 09:41:41;;;;;;;3.78;1.52;;;;;;;8.98;100.00;102765.03;4963025;28;20031;-62
2023/03/04 09:44:37;;;;;;;6.47;1.17;;;;;;;9.08;100.00;102757.19;4965887;28;20037;-64
2023/03/04 09:47:05;;;;;;;6.78;1.83;;;;;;;9.25;100.00;102759.88;4960554;28;20035;-62
2023/03/04 09:49:31;;;;;;;1.85;0.90;;;;;;;9.21;100.00;102758.09;4966966;28;20504;-61
2023/03/04 09:52:22;;;;;;;2.78;1.00;;;;;;;8.99;100.00;102765.94;4966576;28;20049;-60
2023/03/04 09:54:51;;;;;;;3.13;1.10;;;;;;;9.46;100.00;102763.44;4965474;28;20022;-61
2023/03/04 09:57:41;;;;;;;2.80;0.75;;;;;;;9.21;100.00;102761.63;4966606;28;20441;-60
2023/03/04 10:00:19;;;;;;;2.92;0.93;;;;;;;9.00;100.00;102765.03;4948000;28;20042;-62
2023/03/04 10:03:09;;;;;;;2.10;0.77;;;;;;;8.92;100.00;102772.94;4946517;28;20088;-62
2023/03/04 10:05:55;;;;;;;1.38;0.60;;;;;;;8.80;100.00;102765.88;4947668;28;20066;-62
2023/03/04 10:08:46;;;;;;;2.97;0.70;;;;;;;8.90;100.00;102758.00;4963017;28;20039;-62
2023/03/04 10:11:20;;;;;;;0.93;0.73;;;;;;;8.97;100.00;102757.16;4963621;28;20042;-62
2023/03/04 10:14:04;;;;;;;3.65;1.10;;;;;;;9.22;100.00;102754.63;4967090;28;20031;-60
2023/03/04 10:16:39;;;;;;;2.65;0.80;;;;;;;9.35;100.00;102751.13;4963760;28;20038;-60
2023/03/04 10:19:20;;;;;;;2.72;1.13;;;;;;;9.08;100.00;102758.09;4968799;28;20025;-61
2023/03/04 10:21:48;;;;;;;3.10;0.77;;;;;;;9.42;100.00;102757.28;4965058;28;20053;-61
2023/03/04 10:24:17;;;;;;;1.80;0.90;;;;;;;9.67;100.00;102748.53;4947316;28;20027;-60
2023/03/04 10:26:45;;;;;;;5.05;1.00;;;;;;;9.87;100.00;102743.28;4966006;28;20077;-61
2023/03/04 10:29:14;;;;;;;2.58;0.90;;;;;;;9.75;100.00;102749.41;4962676;28;20491;-63
2023/03/04 10:31:41;;;;;;;8.40;1.33;;;;;;;10.03;100.00;102748.53;4954733;28;20028;-61
2023/03/04 10:34:10;;;;;;;9.95;1.77;;;;;;;9.84;100.00;102745.91;4957239;28;20026;-61
2023/03/04 10:36:55;;;;;;;6.40;1.20;;;;;;;9.99;100.00;102742.38;4952749;28;20032;-60
2023/03/04 10:39:27;;;;;;;7.25;1.05;;;;;;;10.14;100.00;102743.28;4953810;28;20606;-60
2023/03/04 10:42:21;;;;;;;5.97;1.13;;;;;;;10.28;100.00;102736.22;4952778;28;20084;-61
2023/03/04 10:44:55;;;;;;;9.15;1.73;;;;;;;10.48;100.00;102740.59;4953575;28;20487;-61
2023/03/04 10:47:27;;;;;;;6.22;1.42;;;;;;;10.53;100.00;102736.16;4954964;28;20376;-61
2023/03/04 10:49:57;;;;;;;2.47;0.70;;;;;;;10.22;100.00;102737.09;4955959;28;20060;-62
2023/03/04 10:52:46;;;;;;;5.55;1.08;;;;;;;10.03;100.00;102727.47;4962520;28;20113;-59
2023/03/04 10:55:26;;;;;;;9.02;1.13;;;;;;;9.79;100.00;102732.75;4964373;28;20050;-64
2023/03/04 10:58:01;;;;;;;5.45;1.00;;;;;;;10.00;100.00;102723.09;4965350;28;20028;-61
2023/03/04 11:00:28;;;;;;;7.65;1.15;;;;;;;9.79;100.00;102724.88;4944930;28;20050;-61
2023/03/04 11:03:26;;;;;;;7.20;1.25;;;;;;;9.88;100.00;102717.81;4947163;28;20023;-63
2023/03/04 11:06:22;;;;;;;3.70;1.00;;;;;;;9.88;100.00;102729.25;4947489;28;20514;-62
2023/03/04 11:08:55;;;;;;;8.95;1.92;;;;;;;9.77;100.00;102725.72;4947223;28;20054;-62
2023/03/04 11:11:33;;;;;;;13.93;1.77;;;;;;;9.60;100.00;102727.47;4947305;28;20042;-62
2023/03/04 11:14:01;;;;;;;6.05;1.58;;;;;;;9.73;100.00;102730.13;4947266;28;20114;-62
2023/03/04 11:16:29;;;;;;;7.27;1.13;;;;;;;9.94;100.00;102733.63;4945330;28;20038;-61
2023/03/04 11:19:03;;;;;;;2.67;0.90;;;;;;;9.75;100.00;102728.34;4947010;28;20749;-62
2023/03/04 11:21:31;;;;;;;4.28;0.85;;;;;;;9.65;100.00;102723.97;4945732;28;20066;-62
2023/03/04 11:23:59;;;;;;;1.40;0.68;;;;;;;9.67;100.00;102716.97;5029636;28;20472;-62